Bissett, Canada
Current Conditions -  °F | °C
As of 2:39 PM on Thursday 29 Jan 2015 (Local Time) from CYRL Reporting Station
Light Snow Light Snow  
Wind Chill: -25°   Ceiling: 1900
Heat Index: -17°   Visibility: 12mi
Dew Point: -21°   Wind: 9mph
Humidity: 72%   Direction: 320°NW
Pressure: 30.36"   Gusts: NA
Location:  51.02°N, 95.67°W
Report Text: CYRL 292039Z 32008KT 12SM -SN BKN019 M17/M21 A3036 RMK SC5 SLP318
Loading
Personal Weather Stations






























Interactive Weather Map New forecast layout! Learn more

10-Day Weather Forecast

Advertisements
Track Severe Weather on mobile